Time;durP1;ratioP1;P1;durP2;ratioP2;P2;SDS_P1;SDS_P2;PMS_P1;PMS_P2;Temp;Humidity;BMP_temperature;BMP_pressure;BME280_temperature;BME280_humidity;BME280_pressure;Samples;Min_cycle;Max_cycle;Signal;HPM_P1;HPM_P2
2022/07/03 00:01:35;;;;;;;5.57;4.15;;;18.90;99.90;;;;;;4958668;28;20047;-88
2022/07/03 00:04:01;;;;;;;5.25;4.05;;;18.90;99.90;;;;;;4958742;28;20019;-86
2022/07/03 00:06:30;;;;;;;5.03;4.35;;;18.80;99.90;;;;;;4957848;29;20054;-88
2022/07/03 00:08:59;;;;;;;5.68;4.65;;;18.80;99.90;;;;;;4941466;29;20119;-88
2022/07/03 00:11:25;;;;;;;6.88;4.30;;;18.80;99.90;;;;;;4958845;28;20023;-88
2022/07/03 00:13:51;;;;;;;5.43;4.78;;;18.80;99.90;;;;;;4957955;28;20039;-89
2022/07/03 00:16:17;;;;;;;6.18;5.22;;;18.80;99.90;;;;;;4954014;29;20026;-88
2022/07/03 00:18:43;;;;;;;9.90;5.72;;;18.80;99.90;;;;;;4959335;28;20047;-87
2022/07/03 00:21:16;;;;;;;9.63;5.00;;;18.70;99.90;;;;;;4945716;29;20023;-87
2022/07/03 00:23:50;;;;;;;7.70;4.70;;;18.70;99.90;;;;;;4961359;29;20059;-88
2022/07/03 00:26:19;;;;;;;6.25;5.20;;;18.70;99.90;;;;;;4981172;23;20047;-84
2022/07/03 00:28:45;;;;;;;9.27;5.72;;;18.70;99.90;;;;;;4957179;29;20015;-84
2022/07/03 00:31:12;;;;;;;5.78;4.70;;;18.70;99.90;;;;;;4961060;29;20079;-86
2022/07/03 00:33:39;;;;;;;5.03;4.30;;;18.70;99.90;;;;;;4960196;29;20075;-84
2022/07/03 00:36:05;;;;;;;7.57;4.93;;;18.70;99.90;;;;;;4960709;29;20035;-84
2022/07/03 00:38:32;;;;;;;6.38;5.03;;;18.70;99.90;;;;;;4961490;29;20019;-86
2022/07/03 00:40:58;;;;;;;5.57;4.60;;;18.70;99.90;;;;;;4945602;29;20044;-83
2022/07/03 00:43:26;;;;;;;9.40;5.00;;;18.70;99.90;;;;;;4961424;28;20027;-84
2022/07/03 00:45:53;;;;;;;5.78;4.90;;;18.70;99.90;;;;;;4962760;28;20028;-84
2022/07/03 00:48:20;;;;;;;7.63;4.75;;;18.60;99.90;;;;;;4962647;28;20024;-83
2022/07/03 00:50:48;;;;;;;8.57;5.05;;;18.60;99.90;;;;;;4962754;28;20039;-83
2022/07/03 00:53:21;;;;;;;6.65;5.25;;;18.60;99.90;;;;;;4945473;29;20016;-84
2022/07/03 00:55:49;;;;;;;5.97;5.00;;;18.60;99.90;;;;;;4958055;29;20036;-85
2022/07/03 00:58:17;;;;;;;6.85;5.43;;;18.50;99.90;;;;;;4954874;29;20035;-86
2022/07/03 01:00:45;;;;;;;7.68;5.40;;;18.50;99.90;;;;;;4957355;29;20023;-83
2022/07/03 01:03:17;;;;;;;6.38;4.70;;;18.50;99.90;;;;;;4960221;29;20020;-83
2022/07/03 01:05:51;;;;;;;9.35;6.03;;;18.50;99.90;;;;;;4960095;29;20039;-83
2022/07/03 01:08:38;;;;;;;7.22;5.05;;;18.50;99.90;;;;;;4959441;29;20059;-85
2022/07/03 01:11:21;;;;;;;7.55;5.20;;;18.40;99.90;;;;;;4961868;28;20048;-83
2022/07/03 01:14:03;;;;;;;8.27;5.47;;;18.30;99.90;;;;;;4962286;28;20024;-84
2022/07/03 01:17:02;;;;;;;6.88;5.65;;;18.20;99.90;;;;;;4958154;28;20051;-84
2022/07/03 01:19:37;;;;;;;8.27;5.43;;;18.20;99.90;;;;;;4951006;29;20044;-85
2022/07/03 01:22:40;;;;;;;6.30;5.70;;;18.10;99.90;;;;;;4953936;29;20038;-86
2022/07/03 01:25:32;;;;;;;10.27;5.63;;;18.00;99.90;;;;;;4954020;29;20032;-85
2022/07/03 01:28:20;;;;;;;6.30;5.32;;;18.00;99.90;;;;;;4955801;29;20055;-85
2022/07/03 01:30:54;;;;;;;8.43;5.55;;;18.00;99.90;;;;;;4958689;28;20035;-83
2022/07/03 01:33:23;;;;;;;8.00;6.13;;;17.90;99.90;;;;;;4959064;28;20039;-85
2022/07/03 01:35:58;;;;;;;8.55;5.55;;;17.90;99.90;;;;;;4958362;29;20043;-85
2022/07/03 01:38:27;;;;;;;8.30;6.10;;;17.80;99.90;;;;;;4959354;28;20099;-83
2022/07/03 01:40:55;;;;;;;5.90;5.30;;;17.80;99.90;;;;;;4959647;28;20042;-83
2022/07/03 01:43:27;;;;;;;5.78;5.18;;;17.80;99.90;;;;;;4959228;29;20031;-84
2022/07/03 01:45:55;;;;;;;7.57;5.60;;;17.80;99.90;;;;;;4958915;29;20039;-83
2022/07/03 01:48:23;;;;;;;7.55;5.32;;;17.70;99.90;;;;;;4958512;28;20020;-84
2022/07/03 01:50:49;;;;;;;7.68;5.63;;;17.80;99.90;;;;;;4954681;29;20460;-85
2022/07/03 01:53:16;;;;;;;6.30;5.10;;;17.70;99.90;;;;;;4956120;29;20112;-84
2022/07/03 01:55:43;;;;;;;9.82;5.80;;;17.70;99.90;;;;;;4957192;29;20031;-84
2022/07/03 01:58:11;;;;;;;8.00;6.15;;;17.60;99.90;;;;;;4957223;29;20027;-84
2022/07/03 02:00:46;;;;;;;11.43;5.45;;;17.60;99.90;;;;;;4958291;29;20028;-83
2022/07/03 02:03:29;;;;;;;8.38;6.15;;;17.60;99.90;;;;;;4957896;29;20031;-84
2022/07/03 02:06:06;;;;;;;9.82;5.20;;;17.60;99.90;;;;;;4957237;29;20023;-83
2022/07/03 02:08:57;;;;;;;7.60;6.03;;;17.60;99.90;;;;;;4958922;29;20040;-83
2022/07/03 02:11:26;;;;;;;9.13;5.35;;;17.50;99.90;;;;;;4959227;29;20072;-83
2022/07/03 02:14:15;;;;;;;10.13;5.50;;;17.50;99.90;;;;;;4959293;29;20004;-83
2022/07/03 02:17:06;;;;;;;7.93;5.25;;;17.50;99.90;;;;;;4958400;28;20051;-83
2022/07/03 02:19:50;;;;;;;7.30;5.93;;;17.50;99.90;;;;;;4959107;29;20036;-84
2022/07/03 02:22:18;;;;;;;7.23;6.07;;;17.40;99.90;;;;;;4959434;29;20050;-84
2022/07/03 02:24:46;;;;;;;8.63;6.20;;;17.40;99.90;;;;;;4959735;28;20075;-84
2022/07/03 02:27:19;;;;;;;8.65;6.15;;;17.30;99.90;;;;;;4958990;29;20043;-84
2022/07/03 02:30:07;;;;;;;7.70;5.82;;;17.30;99.90;;;;;;4957190;29;20060;-84
2022/07/03 02:32:40;;;;;;;14.05;6.10;;;17.30;99.90;;;;;;4958281;29;20051;-83
2022/07/03 02:35:10;;;;;;;8.00;5.88;;;17.30;99.90;;;;;;4959656;28;20044;-84
2022/07/03 02:37:45;;;;;;;7.32;5.60;;;17.30;99.90;;;;;;4958862;29;20034;-85
2022/07/03 02:40:32;;;;;;;9.38;5.97;;;17.30;99.90;;;;;;4954961;28;20038;-85
2022/07/03 02:43:01;;;;;;;9.52;6.07;;;17.20;99.90;;;;;;4956941;29;20034;-83
2022/07/03 02:45:50;;;;;;;7.85;5.93;;;17.20;99.90;;;;;;4958222;28;20016;-82
2022/07/03 02:48:29;;;;;;;9.02;6.15;;;17.20;99.90;;;;;;4959527;28;20028;-84
2022/07/03 02:51:04;;;;;;;8.35;6.25;;;17.20;99.90;;;;;;4958082;29;20016;-85
2022/07/03 02:53:44;;;;;;;7.60;6.10;;;17.20;99.90;;;;;;4956811;28;20052;-83
2022/07/03 02:56:36;;;;;;;10.20;6.90;;;17.20;99.90;;;;;;4959463;28;20031;-83
2022/07/03 02:59:47;;;;;;;9.20;6.57;;;17.10;99.90;;;;;;4958686;29;20042;-84
2022/07/03 03:02:23;;;;;;;7.38;5.97;;;17.10;99.90;;;;;;4900043;29;20036;-84
2022/07/03 03:04:59;;;;;;;8.43;6.43;;;17.10;99.90;;;;;;4900557;29;20052;-84
2022/07/03 03:07:34;;;;;;;8.35;6.38;;;17.10;99.90;;;;;;4936997;29;20047;-84
2022/07/03 03:10:00;;;;;;;10.38;6.05;;;17.10;99.90;;;;;;4956952;29;20030;-84
2022/07/03 03:12:36;;;;;;;9.38;6.65;;;17.10;99.90;;;;;;4943643;28;20046;-83
2022/07/03 03:15:04;;;;;;;7.90;6.32;;;17.10;99.90;;;;;;4957981;28;20027;-83
2022/07/03 03:17:51;;;;;;;7.80;6.13;;;17.10;99.90;;;;;;4956831;29;20023;-85
2022/07/03 03:20:22;;;;;;;9.98;5.93;;;17.10;99.90;;;;;;4958789;28;20023;-83
2022/07/03 03:23:11;;;;;;;8.02;6.10;;;17.10;99.90;;;;;;4958578;29;20032;-83
2022/07/03 03:25:37;;;;;;;7.32;5.70;;;17.10;99.90;;;;;;4956431;29;20039;-84
2022/07/03 03:28:04;;;;;;;7.70;6.25;;;17.10;99.90;;;;;;4958574;29;20056;-83
2022/07/03 03:30:30;;;;;;;9.85;6.63;;;17.10;99.90;;;;;;4958343;29;20034;-83
2022/07/03 03:32:55;;;;;;;10.02;6.60;;;17.10;99.90;;;;;;4958495;28;20028;-83
2022/07/03 03:35:21;;;;;;;8.02;6.40;;;17.10;99.90;;;;;;4949891;29;20031;-85
2022/07/03 03:37:48;;;;;;;9.50;6.38;;;17.10;99.90;;;;;;4950806;29;20058;-84
2022/07/03 03:40:16;;;;;;;10.52;6.45;;;17.10;99.90;;;;;;4958542;28;20034;-84
2022/07/03 03:42:42;;;;;;;8.18;6.05;;;17.10;99.90;;;;;;4959213;28;20028;-81
2022/07/03 03:45:09;;;;;;;12.48;6.22;;;17.20;99.90;;;;;;4959103;28;20043;-83
2022/07/03 03:47:35;;;;;;;13.57;6.70;;;17.20;99.90;;;;;;4955878;28;20030;-82
2022/07/03 03:50:02;;;;;;;7.22;5.82;;;17.20;99.90;;;;;;4955206;29;20047;-83
2022/07/03 03:52:29;;;;;;;11.20;5.95;;;17.30;99.90;;;;;;4958657;28;20038;-82
2022/07/03 03:54:55;;;;;;;9.63;6.45;;;17.30;99.90;;;;;;4963290;28;20046;-83
2022/07/03 03:57:24;;;;;;;8.20;6.03;;;17.40;99.90;;;;;;4961266;29;20023;-84
2022/07/03 03:59:51;;;;;;;8.27;6.15;;;17.50;99.90;;;;;;4958377;29;20035;-83
2022/07/03 04:02:17;;;;;;;8.35;6.88;;;17.50;99.90;;;;;;4962719;28;20048;-85
2022/07/03 04:04:44;;;;;;;8.43;5.82;;;17.60;99.90;;;;;;4959474;29;20039;-86
2022/07/03 04:07:09;;;;;;;7.85;6.22;;;17.60;99.90;;;;;;4961135;28;20016;-84
2022/07/03 04:09:35;;;;;;;8.20;5.88;;;17.60;99.90;;;;;;4960058;28;20060;-84
2022/07/03 04:12:03;;;;;;;7.53;5.90;;;17.70;99.90;;;;;;4954964;29;20058;-84
2022/07/03 04:14:29;;;;;;;8.55;6.25;;;17.80;99.90;;;;;;4956803;29;20032;-85
2022/07/03 04:16:55;;;;;;;9.57;6.40;;;17.90;99.90;;;;;;4958011;29;20024;-85
2022/07/03 04:19:22;;;;;;;13.32;5.68;;;18.00;99.90;;;;;;4958007;29;20515;-84
2022/07/03 04:21:49;;;;;;;6.10;5.25;;;18.10;99.90;;;;;;4942647;29;20036;-84
2022/07/03 04:24:15;;;;;;;8.95;5.40;;;18.20;99.90;;;;;;4960221;29;20031;-84
2022/07/03 04:26:41;;;;;;;5.85;5.25;;;18.20;99.90;;;;;;4959399;29;20032;-83
2022/07/03 04:29:07;;;;;;;7.75;5.75;;;18.30;99.90;;;;;;4958936;29;20028;-86
2022/07/03 04:31:32;;;;;;;6.63;5.18;;;18.30;99.90;;;;;;4958731;29;20040;-84
2022/07/03 04:33:58;;;;;;;6.10;5.05;;;18.40;99.90;;;;;;4960206;29;20012;-84
2022/07/03 04:36:24;;;;;;;7.70;5.72;;;18.50;99.90;;;;;;4959863;29;20016;-85
2022/07/03 04:38:50;;;;;;;8.35;5.30;;;18.50;99.90;;;;;;4960357;29;20023;-85
2022/07/03 04:41:15;;;;;;;8.35;5.40;;;18.60;99.90;;;;;;4960872;29;20027;-86
2022/07/03 04:43:41;;;;;;;7.72;5.30;;;18.60;99.90;;;;;;4961771;28;20050;-83
2022/07/03 04:46:07;;;;;;;6.72;5.38;;;18.60;99.90;;;;;;4961006;28;20043;-83
2022/07/03 04:48:33;;;;;;;8.98;5.82;;;18.70;99.90;;;;;;4962143;28;20046;-83
2022/07/03 04:50:58;;;;;;;7.45;5.15;;;18.80;99.90;;;;;;4961024;29;20030;-85
2022/07/03 04:53:24;;;;;;;7.22;5.18;;;18.80;99.90;;;;;;4961346;29;20491;-84
2022/07/03 04:55:50;;;;;;;7.60;5.10;;;19.30;99.90;;;;;;4961022;29;20741;-84
2022/07/03 04:58:17;;;;;;;6.07;4.88;;;19.80;99.90;;;;;;4959594;28;20043;-85
2022/07/03 05:00:44;;;;;;;9.50;5.13;;;20.20;99.90;;;;;;4958555;29;20036;-84
2022/07/03 05:03:10;;;;;;;5.18;4.68;;;20.40;99.90;;;;;;4957597;29;20035;-85
2022/07/03 05:05:36;;;;;;;5.57;4.57;;;20.30;99.90;;;;;;4958625;28;20079;-85
2022/07/03 05:08:01;;;;;;;5.43;4.55;;;20.30;99.90;;;;;;4940529;29;20039;-84
2022/07/03 05:10:27;;;;;;;6.53;4.57;;;20.20;99.90;;;;;;4956388;29;20031;-84
2022/07/03 05:12:53;;;;;;;7.43;4.60;;;20.30;99.90;;;;;;4956744;29;20036;-85
2022/07/03 05:15:19;;;;;;;6.38;4.38;;;20.30;99.90;;;;;;4957036;29;20019;-83
2022/07/03 05:17:45;;;;;;;6.43;4.57;;;20.30;99.90;;;;;;4962100;28;20048;-84
2022/07/03 05:20:23;;;;;;;5.45;4.95;;;20.20;99.90;;;;;;4959609;29;20054;-83
2022/07/03 05:22:53;;;;;;;7.10;5.25;;;20.10;99.90;;;;;;4958232;29;20036;-83
2022/07/03 05:25:19;;;;;;;9.30;5.35;;;20.00;99.90;;;;;;4962136;28;20031;-83
2022/07/03 05:27:45;;;;;;;6.55;5.38;;;20.10;99.90;;;;;;4959974;28;20091;-85
2022/07/03 05:30:12;;;;;;;8.95;5.60;;;20.10;99.90;;;;;;4958255;29;20054;-84
2022/07/03 05:32:38;;;;;;;7.10;5.20;;;20.20;99.90;;;;;;4959114;29;20019;-85
2022/07/03 05:35:05;;;;;;;11.30;6.50;;;20.30;99.90;;;;;;4959531;29;20028;-84
2022/07/03 05:37:31;;;;;;;6.80;5.15;;;20.40;99.90;;;;;;4958972;29;20040;-84
2022/07/03 05:39:57;;;;;;;7.53;5.68;;;20.50;99.90;;;;;;4958320;29;20539;-84
2022/07/03 05:42:23;;;;;;;8.02;5.63;;;20.60;99.90;;;;;;4957531;29;20031;-83
2022/07/03 05:44:48;;;;;;;8.05;5.43;;;20.70;99.90;;;;;;4957079;29;20047;-84
2022/07/03 05:47:14;;;;;;;6.47;5.38;;;20.80;99.90;;;;;;4956334;29;20058;-84
2022/07/03 05:49:40;;;;;;;6.75;4.90;;;20.80;99.90;;;;;;4957457;29;20036;-84
2022/07/03 05:52:06;;;;;;;12.10;5.95;;;20.90;99.90;;;;;;4957477;29;20074;-84
2022/07/03 05:54:32;;;;;;;6.40;5.25;;;21.00;99.90;;;;;;4956372;29;20050;-84
2022/07/03 05:56:59;;;;;;;6.72;5.22;;;21.10;99.90;;;;;;4953476;29;20333;-86
2022/07/03 05:59:25;;;;;;;11.23;4.90;;;21.10;99.90;;;;;;4960968;28;20054;-85
2022/07/03 06:01:51;;;;;;;7.63;5.55;;;21.10;99.90;;;;;;4957842;29;20047;-84
2022/07/03 06:04:17;;;;;;;8.52;5.57;;;21.20;99.90;;;;;;4959831;28;20079;-85
2022/07/03 06:06:42;;;;;;;10.60;5.40;;;21.30;99.90;;;;;;4960073;29;20027;-85
2022/07/03 06:09:08;;;;;;;6.85;5.20;;;21.40;99.90;;;;;;4960034;29;20055;-85
2022/07/03 06:11:34;;;;;;;7.10;5.25;;;21.50;99.90;;;;;;4958106;29;20030;-85
2022/07/03 06:14:00;;;;;;;9.88;6.07;;;21.50;99.90;;;;;;4959170;29;20036;-85
2022/07/03 06:16:25;;;;;;;9.15;5.22;;;21.60;99.90;;;;;;4959177;29;20011;-83
2022/07/03 06:18:51;;;;;;;5.35;4.68;;;21.60;99.90;;;;;;4944005;29;20039;-84
2022/07/03 06:21:17;;;;;;;5.53;4.90;;;21.70;99.90;;;;;;4960272;28;20035;-83
2022/07/03 06:23:43;;;;;;;6.10;5.22;;;21.70;99.90;;;;;;4957289;28;20099;-83
2022/07/03 06:26:09;;;;;;;7.95;5.43;;;21.80;99.90;;;;;;4979839;23;20032;-88
2022/07/03 06:28:37;;;;;;;5.55;4.88;;;21.90;99.90;;;;;;4960990;28;20116;-88
2022/07/03 06:31:03;;;;;;;6.05;4.93;;;22.10;99.90;;;;;;4960445;28;20027;-86
2022/07/03 06:33:29;;;;;;;5.38;4.35;;;22.10;99.90;;;;;;4960688;28;20027;-86
2022/07/03 06:35:55;;;;;;;6.88;5.25;;;22.20;99.90;;;;;;4960612;28;20016;-86
2022/07/03 06:38:21;;;;;;;7.45;4.90;;;22.30;99.90;;;;;;4959815;28;20067;-89
2022/07/03 06:40:46;;;;;;;9.55;5.03;;;22.30;99.90;;;;;;4943448;28;20095;-87
2022/07/03 06:43:12;;;;;;;9.77;4.80;;;22.30;99.90;;;;;;4960009;28;20019;-89
2022/07/03 06:45:38;;;;;;;4.97;4.38;;;22.40;99.90;;;;;;4959981;28;20050;-85
2022/07/03 06:48:04;;;;;;;8.23;4.78;;;22.40;99.90;;;;;;4943957;28;20024;-87
2022/07/03 06:50:51;;;;;;;7.70;4.97;;;22.40;99.90;;;;;;4959195;28;20104;-87
2022/07/03 06:53:20;;;;;;;5.72;4.18;;;22.50;99.90;;;;;;4942040;29;20048;-90
2022/07/03 06:55:48;;;;;;;8.20;4.57;;;22.60;99.90;;;;;;4958885;28;20012;-87
2022/07/03 06:58:14;;;;;;;6.30;4.82;;;22.50;99.90;;;;;;4959302;28;20070;-88
2022/07/03 07:00:47;;;;;;;10.23;4.57;;;22.50;99.90;;;;;;4959793;28;20020;-87
2022/07/03 07:03:12;;;;;;;5.63;4.68;;;22.60;99.90;;;;;;4959278;28;20083;-87
2022/07/03 07:05:38;;;;;;;4.72;4.22;;;22.70;99.90;;;;;;4943388;29;20016;-89
2022/07/03 07:08:04;;;;;;;5.72;3.90;;;22.80;99.90;;;;;;4958975;28;20058;-87
2022/07/03 07:10:30;;;;;;;4.38;3.97;;;22.90;99.90;;;;;;4958685;28;20043;-88
2022/07/03 07:12:56;;;;;;;7.72;4.22;;;23.00;99.90;;;;;;4959538;28;20035;-87
2022/07/03 07:15:21;;;;;;;4.72;4.28;;;23.00;99.90;;;;;;4956931;28;20035;-88
2022/07/03 07:17:47;;;;;;;5.00;3.88;;;23.20;99.90;;;;;;4956259;29;20043;-88
2022/07/03 07:20:13;;;;;;;8.45;3.70;;;23.30;99.90;;;;;;4955367;29;20034;-89
2022/07/03 07:22:39;;;;;;;6.82;4.07;;;23.30;99.90;;;;;;4953949;29;20032;-88
2022/07/03 07:25:05;;;;;;;4.07;3.67;;;23.30;99.90;;;;;;4954171;29;20042;-89
2022/07/03 07:27:31;;;;;;;5.25;3.92;;;23.30;99.90;;;;;;4937763;29;20067;-88
2022/07/03 07:29:57;;;;;;;4.18;3.78;;;23.40;99.90;;;;;;4954299;29;20027;-90
2022/07/03 07:32:23;;;;;;;4.75;4.18;;;23.50;99.90;;;;;;4957608;28;20039;-87
2022/07/03 07:34:58;;;;;;;4.53;3.65;;;23.60;99.90;;;;;;4957540;28;20026;-89
2022/07/03 07:37:24;;;;;;;;;;;23.60;99.90;;;;;;4957916;28;20113;-89
2022/07/03 07:39:50;;;;;;;5.13;3.97;;;23.70;99.80;;;;;;4958008;29;19907;-88
2022/07/03 07:42:16;;;;;;;8.10;3.80;;;23.90;99.60;;;;;;4958273;28;20036;-86
2022/07/03 07:44:42;;;;;;;5.03;3.85;;;24.00;99.50;;;;;;4957432;28;20028;-89
2022/07/03 07:47:08;;;;;;;4.97;4.38;;;24.00;99.50;;;;;;4958102;28;20157;-89
2022/07/03 07:49:34;;;;;;;5.57;3.85;;;24.20;99.30;;;;;;4955608;29;20062;-89
2022/07/03 07:52:00;;;;;;;4.80;3.60;;;24.30;99.10;;;;;;4953072;29;20036;-87
2022/07/03 07:54:26;;;;;;;4.80;3.83;;;24.30;99.00;;;;;;4938258;29;20043;-89
2022/07/03 07:56:52;;;;;;;5.10;3.75;;;24.40;98.90;;;;;;4957865;29;20023;-88
2022/07/03 07:59:17;;;;;;;4.75;3.67;;;24.50;98.70;;;;;;4957452;28;20051;-88
2022/07/03 08:07:12;;;;;;;6.73;3.80;;;24.60;98.60;;;;;;4958910;28;20024;-87
2022/07/03 08:09:38;;;;;;;4.78;4.00;;;24.80;98.50;;;;;;4957796;28;20302;-89
2022/07/03 08:12:04;;;;;;;5.63;3.80;;;24.80;98.30;;;;;;4957671;28;20087;-88
2022/07/03 08:14:30;;;;;;;7.28;3.28;;;24.80;98.50;;;;;;4957021;28;20026;-88
2022/07/03 08:16:56;;;;;;;6.28;3.70;;;25.00;98.20;;;;;;4958042;28;20031;-89
2022/07/03 08:19:22;;;;;;;6.00;3.40;;;25.20;97.90;;;;;;4958459;28;20031;-88
2022/07/03 08:21:48;;;;;;;8.20;4.22;;;25.20;98.00;;;;;;4958587;28;20028;-88
2022/07/03 08:24:16;;;;;;;7.20;3.33;;;25.10;97.90;;;;;;4958246;29;20043;-88
2022/07/03 08:26:42;;;;;;;7.68;3.63;;;25.10;97.90;;;;;;4958181;28;20019;-87
2022/07/03 08:29:08;;;;;;;4.63;3.50;;;25.10;97.80;;;;;;4957061;28;20096;-88
2022/07/03 08:31:34;;;;;;;7.30;4.20;;;25.10;97.70;;;;;;4958982;28;20024;-88
2022/07/03 08:33:59;;;;;;;3.78;3.10;;;25.00;97.80;;;;;;4959100;28;20023;-88
2022/07/03 08:36:25;;;;;;;3.88;3.40;;;24.90;97.80;;;;;;4959129;28;20044;-88
2022/07/03 08:38:51;;;;;;;5.93;3.85;;;25.10;98.00;;;;;;4942491;29;20035;-87
2022/07/03 08:41:20;;;;;;;4.28;3.67;;;25.10;97.70;;;;;;4962306;28;20078;-88
2022/07/03 08:43:47;;;;;;;5.60;3.60;;;25.20;97.40;;;;;;4959961;29;20027;-88
2022/07/03 08:46:15;;;;;;;4.30;3.88;;;25.30;97.20;;;;;;4961989;28;20027;-88
2022/07/03 08:48:43;;;;;;;4.18;3.75;;;25.40;97.00;;;;;;4944857;29;20031;-89
2022/07/03 08:51:10;;;;;;;5.10;3.40;;;25.60;97.00;;;;;;4960845;28;20016;-87
2022/07/03 08:53:39;;;;;;;4.90;3.65;;;25.60;96.70;;;;;;4960376;29;20129;-88
2022/07/03 08:56:07;;;;;;;3.97;3.45;;;25.60;96.70;;;;;;4958051;29;20408;-89
2022/07/03 08:58:33;;;;;;;5.05;3.80;;;25.60;96.70;;;;;;4953883;29;20099;-87
2022/07/03 09:01:00;;;;;;;4.28;3.88;;;25.80;96.40;;;;;;4954390;29;20035;-88
2022/07/03 09:03:26;;;;;;;4.13;3.72;;;25.70;96.40;;;;;;4954888;29;20087;-89
2022/07/03 09:05:52;;;;;;;5.85;3.70;;;25.80;96.30;;;;;;4956578;29;20100;-89
2022/07/03 09:08:19;;;;;;;4.85;3.40;;;26.00;96.20;;;;;;4939077;29;20032;-88
2022/07/03 09:10:45;;;;;;;4.85;3.20;;;26.10;95.90;;;;;;4955544;29;20082;-90
2022/07/03 09:13:14;;;;;;;3.58;3.05;;;26.00;95.90;;;;;;4955569;29;20031;-88
2022/07/03 09:15:40;;;;;;;7.63;3.53;;;26.00;95.90;;;;;;4952975;29;20031;-88
2022/07/03 09:18:07;;;;;;;9.93;3.65;;;26.10;96.50;;;;;;4954005;29;20019;-88
2022/07/03 09:20:36;;;;;;;5.47;3.28;;;26.00;96.00;;;;;;4954371;29;20020;-90
2022/07/03 09:23:11;;;;;;;4.03;3.33;;;26.00;96.00;;;;;;4941634;29;20416;-88
2022/07/03 09:25:58;;;;;;;5.40;3.60;;;25.90;95.80;;;;;;4959221;28;20252;-86
2022/07/03 09:28:43;;;;;;;5.75;3.20;;;26.00;95.70;;;;;;4954764;29;20043;-86
2022/07/03 09:31:11;;;;;;;3.42;3.13;;;26.10;95.70;;;;;;4959261;28;20028;-88
2022/07/03 09:33:57;;;;;;;5.15;3.20;;;25.80;95.30;;;;;;4959714;28;20083;-90
2022/07/03 09:36:44;;;;;;;3.38;2.95;;;25.90;95.40;;;;;;4951288;29;20036;-88
2022/07/03 09:39:31;;;;;;;4.53;2.90;;;26.10;94.60;;;;;;4951318;29;20035;-89
2022/07/03 09:42:11;;;;;;;3.72;2.50;;;26.20;94.40;;;;;;4949086;29;20091;-88
2022/07/03 09:44:40;;;;;;;3.53;3.08;;;26.40;93.90;;;;;;4950259;29;20400;-88
2022/07/03 09:47:21;;;;;;;4.35;3.10;;;26.50;93.90;;;;;;4949475;29;20032;-90
2022/07/03 09:49:49;;;;;;;5.22;2.90;;;26.60;93.40;;;;;;4953286;29;20055;-89
2022/07/03 09:52:30;;;;;;;3.55;2.72;;;27.10;93.10;;;;;;4932285;29;20024;-89
2022/07/03 09:55:01;;;;;;;4.32;2.80;;;27.90;92.30;;;;;;4947421;29;20083;-89
2022/07/03 09:57:29;;;;;;;6.45;2.47;;;28.30;91.70;;;;;;4946966;29;20036;-90
2022/07/03 10:00:18;;;;;;;6.70;2.90;;;28.90;91.00;;;;;;4947279;29;20028;-89
2022/07/03 10:02:56;;;;;;;4.25;2.38;;;29.70;90.20;;;;;;4948975;28;20024;-87
2022/07/03 10:05:25;;;;;;;4.50;2.25;;;30.20;89.10;;;;;;4955991;28;20064;-88
2022/07/03 10:08:00;;;;;;;3.05;2.35;;;30.40;86.70;;;;;;4955204;29;20023;-88
2022/07/03 10:10:34;;;;;;;2.92;2.55;;;31.20;86.10;;;;;;4961212;28;20020;-88
2022/07/03 10:13:00;;;;;;;6.60;2.70;;;31.60;82.90;;;;;;4961274;28;20035;-88
2022/07/03 10:15:28;;;;;;;3.50;2.65;;;31.40;82.80;;;;;;4961519;28;20047;-89
2022/07/03 10:17:56;;;;;;;5.72;2.20;;;32.80;80.50;;;;;;4944960;28;20051;-87
2022/07/03 10:20:27;;;;;;;3.80;2.58;;;34.50;76.10;;;;;;4944846;28;20019;-89
2022/07/03 10:22:54;;;;;;;2.80;2.00;;;35.70;72.60;;;;;;4960627;28;20042;-87
2022/07/03 10:25:20;;;;;;;4.10;2.10;;;35.60;71.40;;;;;;4961243;28;20020;-88
2022/07/03 10:27:47;;;;;;;3.67;2.47;;;35.80;70.20;;;;;;4960990;28;20028;-88
2022/07/03 10:30:23;;;;;;;2.25;2.05;;;36.40;68.40;;;;;;4960534;28;20020;-89
2022/07/03 10:32:53;;;;;;;4.10;2.08;;;37.30;67.00;;;;;;4958206;28;20035;-89
2022/07/03 10:35:40;;;;;;;5.60;2.55;;;38.10;65.10;;;;;;4934726;29;20042;-90
2022/07/03 10:38:17;;;;;;;4.05;2.08;;;39.30;62.70;;;;;;4946985;29;20063;-87
2022/07/03 10:46:29;;;;;;;2.65;2.00;;;41.50;56.20;;;;;;4959591;28;20047;-90
2022/07/03 10:49:06;;;;;;;2.58;2.15;;;41.30;56.30;;;;;;4959381;28;20040;-87
2022/07/03 10:51:50;;;;;;;3.25;1.85;;;41.00;55.80;;;;;;4959425;28;20032;-86
2022/07/03 10:54:23;;;;;;;3.97;2.13;;;40.60;55.70;;;;;;4959536;28;20019;-90
2022/07/03 10:57:01;;;;;;;2.88;2.67;;;40.80;55.40;;;;;;4959448;28;20115;-87
2022/07/03 10:59:46;;;;;;;2.40;2.20;;;41.40;54.70;;;;;;4959910;28;20094;-88
2022/07/03 11:02:32;;;;;;;3.70;2.22;;;42.10;54.00;;;;;;4959017;28;20211;-87
2022/07/03 11:07:31;;;;;;;3.30;2.35;;;42.50;52.50;;;;;;4959472;28;20050;-88
2022/07/03 11:10:12;;;;;;;;;;;43.10;52.20;;;;;;4960166;28;20059;-89
2022/07/03 11:13:03;;;;;;;5.00;2.22;;;43.40;51.80;;;;;;4958097;28;19922;-87
2022/07/03 11:15:33;;;;;;;2.40;2.00;;;43.70;51.30;;;;;;4942639;29;20101;-86
2022/07/03 11:18:18;;;;;;;4.55;2.10;;;43.20;51.40;;;;;;4957575;28;20038;-89
2022/07/03 11:21:01;;;;;;;4.63;2.10;;;43.40;51.30;;;;;;4957588;29;20035;-88
2022/07/03 11:23:29;;;;;;;2.95;2.13;;;43.50;50.90;;;;;;4958588;28;20099;-89
2022/07/03 11:26:21;;;;;;;2.33;2.13;;;43.10;50.70;;;;;;4957717;28;20031;-88
2022/07/03 11:28:48;;;;;;;2.90;1.92;;;43.10;51.10;;;;;;4958655;28;20070;-89
2022/07/03 11:31:15;;;;;;;2.00;1.67;;;43.30;50.80;;;;;;4959766;28;20072;-88
2022/07/03 11:33:45;;;;;;;4.50;1.90;;;43.30;50.70;;;;;;4959188;28;20058;-89
2022/07/03 11:36:15;;;;;;;2.60;2.40;;;43.30;50.50;;;;;;4957844;28;20090;-89
2022/07/03 11:38:43;;;;;;;3.15;2.20;;;44.00;50.20;;;;;;4948706;29;20062;-88
2022/07/03 11:41:14;;;;;;;2.35;2.15;;;44.50;49.70;;;;;;4947872;29;20040;-90
2022/07/03 11:43:51;;;;;;;3.15;1.80;;;44.90;49.30;;;;;;4953388;29;20031;-88
2022/07/03 11:46:25;;;;;;;1.90;1.80;;;44.50;49.20;;;;;;4954152;29;20039;-89
2022/07/03 11:49:12;;;;;;;2.67;2.15;;;44.20;49.50;;;;;;4954053;29;20038;-88
2022/07/03 11:51:42;;;;;;;2.20;1.88;;;44.30;49.30;;;;;;4957217;29;20024;-88
2022/07/03 11:54:08;;;;;;;1.90;1.80;;;44.50;49.30;;;;;;4957817;29;20024;-88
2022/07/03 11:56:36;;;;;;;2.55;2.22;;;43.90;49.50;;;;;;4959079;28;20091;-91
2022/07/03 11:59:04;;;;;;;2.30;2.10;;;43.90;49.50;;;;;;4958752;28;20036;-88
2022/07/03 12:01:31;;;;;;;3.25;2.05;;;44.00;49.60;;;;;;4959462;28;20020;-88
2022/07/03 12:04:24;;;;;;;3.35;2.00;;;44.10;49.60;;;;;;4958775;28;20047;-88
2022/07/03 12:06:57;;;;;;;2.85;2.17;;;44.10;49.40;;;;;;4958535;28;20046;-88
2022/07/03 12:09:34;;;;;;;2.58;1.90;;;44.40;49.50;;;;;;4959180;28;20043;-88
2022/07/03 12:12:02;;;;;;;5.32;2.25;;;44.80;48.80;;;;;;4959462;28;20031;-89
2022/07/03 12:14:34;;;;;;;3.17;2.15;;;44.30;49.00;;;;;;4959412;28;20027;-86
2022/07/03 12:17:00;;;;;;;5.95;1.90;;;43.90;49.50;;;;;;4962695;28;20020;-87
2022/07/03 12:19:26;;;;;;;2.50;2.30;;;44.30;49.20;;;;;;4962476;28;20023;-88
2022/07/03 12:21:52;;;;;;;6.32;2.30;;;44.80;49.20;;;;;;4962245;28;20091;-90
2022/07/03 12:24:18;;;;;;;2.22;1.85;;;44.90;48.80;;;;;;4962625;28;20043;-87
2022/07/03 12:26:44;;;;;;;3.00;2.00;;;45.40;48.70;;;;;;4978695;23;20060;-86
2022/07/03 12:29:12;;;;;;;3.08;1.98;;;46.20;47.90;;;;;;4943368;29;20392;-86
2022/07/03 12:31:56;;;;;;;3.22;2.00;;;46.40;47.40;;;;;;4944381;29;20392;-86
2022/07/03 12:34:22;;;;;;;4.00;2.10;;;46.40;47.50;;;;;;4944354;29;20027;-86
2022/07/03 12:36:59;;;;;;;2.20;2.00;;;46.60;47.30;;;;;;4946932;29;20035;-88
2022/07/03 12:39:45;;;;;;;3.47;2.00;;;46.60;46.80;;;;;;4948094;29;20034;-87
2022/07/03 12:42:50;;;;;;;3.63;2.20;;;45.90;47.50;;;;;;4945502;29;20106;-85
2022/07/03 12:45:20;;;;;;;2.75;2.10;;;46.50;47.00;;;;;;4905689;29;20078;-86
2022/07/03 12:47:56;;;;;;;3.60;2.03;;;46.30;47.10;;;;;;4946835;29;20024;-86
2022/07/03 12:50:22;;;;;;;2.25;1.92;;;47.00;46.00;;;;;;4961212;28;20028;-87
2022/07/03 12:52:55;;;;;;;2.20;2.00;;;47.00;46.20;;;;;;4949273;29;20571;-86
2022/07/03 12:55:26;;;;;;;4.18;1.88;;;47.30;45.80;;;;;;4953931;28;20038;-86
2022/07/03 13:01:00;;;;;;;1.90;1.70;;;47.60;45.00;;;;;;4962244;28;20028;-86
2022/07/03 13:03:37;;;;;;;2.75;1.45;;;47.30;45.00;;;;;;4961595;28;20020;-87
2022/07/03 13:06:11;;;;;;;1.50;1.30;;;47.20;43.50;;;;;;4961306;28;20044;-87
2022/07/03 13:08:37;;;;;;;3.30;1.48;;;47.20;43.50;;;;;;4949627;29;20054;-86
2022/07/03 13:11:03;;;;;;;2.85;1.63;;;47.10;42.80;;;;;;4946878;29;20445;-87
2022/07/03 13:13:47;;;;;;;2.25;1.77;;;46.90;43.10;;;;;;4947449;29;20047;-85
2022/07/03 13:16:26;;;;;;;2.50;1.65;;;46.60;43.50;;;;;;4947395;29;20484;-86
2022/07/03 13:19:02;;;;;;;1.85;1.75;;;46.50;43.40;;;;;;4947367;29;20035;-86
2022/07/03 13:21:28;;;;;;;2.05;1.63;;;46.80;43.30;;;;;;4947584;29;20424;-87
2022/07/03 13:23:55;;;;;;;1.67;1.58;;;47.20;43.30;;;;;;4948353;29;20034;-87